createdAt,value
2022-07-26T00:02:02.350Z,22.45
2022-07-26T00:04:30.444Z,22.46
2022-07-26T00:06:58.629Z,22.46
2022-07-26T00:09:26.630Z,22.39
2022-07-26T00:11:56.035Z,22.39
2022-07-26T00:14:24.086Z,22.38
2022-07-26T00:16:52.161Z,22.27
2022-07-26T00:19:20.236Z,22.18
2022-07-26T00:21:48.753Z,22.07
2022-07-26T00:24:16.724Z,22.01
2022-07-26T00:26:44.717Z,21.92
2022-07-26T00:29:14.079Z,21.81
2022-07-26T00:31:42.185Z,21.79
2022-07-26T00:34:10.298Z,21.70
2022-07-26T00:36:41.068Z,21.67
2022-07-26T00:39:10.272Z,21.65
2022-07-26T00:41:38.506Z,21.60
2022-07-26T00:44:06.929Z,21.56
2022-07-26T00:46:36.348Z,21.48
2022-07-26T00:49:04.500Z,21.47
2022-07-26T00:51:32.677Z,21.41
2022-07-26T00:54:00.677Z,21.36
2022-07-26T00:56:28.713Z,21.31
2022-07-26T00:58:56.705Z,21.26
2022-07-26T01:01:24.737Z,21.21
2022-07-26T01:03:54.327Z,21.16
2022-07-26T01:06:26.797Z,21.09
2022-07-26T01:08:55.262Z,21.03
2022-07-26T01:11:23.306Z,20.96
2022-07-26T01:13:51.387Z,20.89
2022-07-26T01:16:19.568Z,20.83
2022-07-26T01:18:47.637Z,20.78
2022-07-26T01:21:17.014Z,20.73
2022-07-26T01:23:46.792Z,20.69
2022-07-26T01:26:14.837Z,20.70
2022-07-26T01:28:42.865Z,20.70
2022-07-26T01:31:10.948Z,20.68
2022-07-26T01:33:38.989Z,20.71
2022-07-26T01:36:07.526Z,20.65
2022-07-26T01:38:35.564Z,20.61
2022-07-26T01:41:04.945Z,20.61
2022-07-26T01:43:32.950Z,20.61
2022-07-26T01:46:01.048Z,20.61
2022-07-26T01:48:29.195Z,20.62
2022-07-26T01:50:58.370Z,20.62
2022-07-26T01:53:26.372Z,20.60
2022-07-26T01:55:54.373Z,20.55
2022-07-26T01:58:23.817Z,20.50
2022-07-26T02:00:51.962Z,20.42
2022-07-26T02:03:20.061Z,20.36
2022-07-26T02:05:48.182Z,20.39
2022-07-26T02:08:16.181Z,20.37
2022-07-26T02:11:05.996Z,20.35
2022-07-26T02:13:36.027Z,20.29
2022-07-26T02:16:04.484Z,20.22
2022-07-26T02:18:32.498Z,20.16
2022-07-26T02:21:00.554Z,20.18
2022-07-26T02:23:28.744Z,20.12
2022-07-26T02:25:56.754Z,20.12
2022-07-26T02:28:24.867Z,20.12
2022-07-26T02:30:54.319Z,20.11
2022-07-26T02:33:22.353Z,20.13
2022-07-26T02:35:50.357Z,20.18
2022-07-26T02:38:18.656Z,20.20
2022-07-26T02:40:50.601Z,20.20
2022-07-26T02:43:18.624Z,20.22
2022-07-26T02:46:01.163Z,20.22
2022-07-26T02:48:31.958Z,20.23
2022-07-26T02:51:00.125Z,20.23
2022-07-26T02:53:28.218Z,20.22
2022-07-26T02:55:56.241Z,20.29
2022-07-26T02:58:25.245Z,20.31
2022-07-26T03:00:53.308Z,20.37
2022-07-26T03:03:21.319Z,20.41
2022-07-26T03:05:50.699Z,20.42
2022-07-26T03:08:18.720Z,20.55
2022-07-26T03:10:46.745Z,20.58
2022-07-26T03:13:15.282Z,20.60
2022-07-26T03:15:43.309Z,20.60
2022-07-26T03:18:11.366Z,20.62
2022-07-26T03:20:39.352Z,20.64
2022-07-26T03:23:08.701Z,20.70
2022-07-26T03:25:37.760Z,20.74
2022-07-26T03:28:06.301Z,20.86
2022-07-26T03:30:34.410Z,20.96
2022-07-26T03:33:02.413Z,21.03
2022-07-26T03:35:30.444Z,21.06
2022-07-26T03:38:04.927Z,21.05
2022-07-26T03:40:35.084Z,21.04
2022-07-26T03:43:03.090Z,21.07
2022-07-26T03:45:31.119Z,21.18
2022-07-26T03:47:59.142Z,21.26
2022-07-26T03:50:27.144Z,21.34
2022-07-26T03:52:55.158Z,21.45
2022-07-26T03:55:40.836Z,21.60
2022-07-26T03:58:10.236Z,21.76
2022-07-26T04:00:38.257Z,21.92
2022-07-26T04:03:06.281Z,22.09
2022-07-26T04:05:34.310Z,22.29
2022-07-26T04:08:04.157Z,22.47
2022-07-26T04:10:32.432Z,22.65
2022-07-26T04:13:00.451Z,22.75
2022-07-26T04:15:29.783Z,22.89
2022-07-26T04:17:57.775Z,22.94
2022-07-26T04:20:25.787Z,23.15
2022-07-26T04:22:53.803Z,23.40
2022-07-26T04:25:22.127Z,23.63
2022-07-26T04:27:50.144Z,24.09
2022-07-26T04:30:18.160Z,25.39
2022-07-26T04:32:47.554Z,27.18
2022-07-26T04:35:16.726Z,29.08
2022-07-26T04:37:44.850Z,30.73
2022-07-26T04:40:17.530Z,31.80
2022-07-26T04:42:49.722Z,32.43
2022-07-26T04:45:17.776Z,33.11
2022-07-26T04:47:49.721Z,33.52
2022-07-26T04:50:17.816Z,33.38
2022-07-26T04:52:45.857Z,33.12
2022-07-26T04:55:13.882Z,33.07
2022-07-26T04:57:41.928Z,32.71
2022-07-26T05:00:26.769Z,32.25
2022-07-26T05:02:57.378Z,31.66
2022-07-26T05:05:26.686Z,31.13
2022-07-26T05:07:55.669Z,30.58
2022-07-26T05:10:24.257Z,29.99
2022-07-26T05:12:52.274Z,29.51
2022-07-26T05:15:20.679Z,29.38
2022-07-26T05:17:48.802Z,29.17
2022-07-26T05:20:18.199Z,29.12
2022-07-26T05:22:47.115Z,29.19
2022-07-26T05:25:15.105Z,29.21
2022-07-26T05:27:43.136Z,29.44
2022-07-26T05:30:11.935Z,29.82
2022-07-26T05:32:40.028Z,30.58
2022-07-26T05:35:08.749Z,32.06
2022-07-26T05:37:38.136Z,34.04
2022-07-26T05:40:07.241Z,35.95
2022-07-26T05:42:35.235Z,37.16
2022-07-26T05:45:03.268Z,38.58
2022-07-26T05:47:31.357Z,39.25
2022-07-26T05:49:59.455Z,39.76
2022-07-26T05:52:27.470Z,41.04
2022-07-26T05:54:56.861Z,41.79
2022-07-26T05:57:24.841Z,42.37
2022-07-26T05:59:52.856Z,42.51
2022-07-26T06:02:20.927Z,42.62
2022-07-26T06:04:49.025Z,42.45
2022-07-26T06:07:17.087Z,42.36
2022-07-26T06:09:45.288Z,42.34
2022-07-26T06:12:14.659Z,42.58
2022-07-26T06:14:42.663Z,43.01
2022-07-26T06:17:10.787Z,42.46
2022-07-26T06:19:38.842Z,42.28
2022-07-26T06:22:06.888Z,40.84
2022-07-26T06:24:34.902Z,41.01
2022-07-26T06:27:05.236Z,41.93
2022-07-26T06:29:35.080Z,42.27
2022-07-26T06:32:03.154Z,42.96
2022-07-26T06:34:31.199Z,43.54
2022-07-26T06:36:59.254Z,43.65
2022-07-26T06:39:27.267Z,43.41
2022-07-26T06:41:55.318Z,42.08
2022-07-26T06:44:23.904Z,41.36
2022-07-26T06:46:53.261Z,41.18
2022-07-26T06:49:22.988Z,41.87
2022-07-26T06:51:51.200Z,41.81
2022-07-26T06:54:19.224Z,41.72
2022-07-26T06:56:47.253Z,42.15
2022-07-26T06:59:15.253Z,42.74
2022-07-26T07:01:51.631Z,42.86
2022-07-26T07:04:29.508Z,43.15
2022-07-26T07:07:02.749Z,43.10
2022-07-26T07:09:33.674Z,42.73
2022-07-26T07:12:09.614Z,41.66
2022-07-26T07:14:38.694Z,41.60
2022-07-26T07:17:12.956Z,41.46
2022-07-26T07:19:43.404Z,40.46
2022-07-26T07:22:12.858Z,39.52
2022-07-26T07:24:41.094Z,38.49
2022-07-26T07:27:09.114Z,37.30
2022-07-26T07:29:38.934Z,36.75
2022-07-26T07:32:18.325Z,36.33
2022-07-26T07:34:49.625Z,35.74
2022-07-26T07:37:17.693Z,35.86
2022-07-26T07:39:48.735Z,36.02
2022-07-26T07:42:18.598Z,35.96
2022-07-26T07:44:46.663Z,35.97
2022-07-26T07:47:14.969Z,35.85
2022-07-26T07:49:43.067Z,35.49
2022-07-26T07:52:12.431Z,35.61
2022-07-26T07:54:40.453Z,35.79
2022-07-26T07:57:10.388Z,36.26
2022-07-26T07:59:39.382Z,37.22
2022-07-26T08:02:08.061Z,38.48
2022-07-26T08:04:36.186Z,39.48
2022-07-26T08:07:04.255Z,40.06
2022-07-26T08:09:34.163Z,40.27
2022-07-26T08:12:02.302Z,40.56
2022-07-26T08:14:30.391Z,40.73
2022-07-26T08:16:58.478Z,40.96
2022-07-26T08:19:41.973Z,40.47
2022-07-26T08:22:10.644Z,39.96
2022-07-26T08:24:40.635Z,39.09
2022-07-26T08:27:08.723Z,39.11
2022-07-26T08:29:36.739Z,39.43
2022-07-26T08:32:05.026Z,39.75
2022-07-26T08:34:33.137Z,39.80
2022-07-26T08:37:16.660Z,39.56
2022-07-26T08:39:47.204Z,38.93
2022-07-26T08:42:16.031Z,38.94
2022-07-26T08:44:45.411Z,38.54
2022-07-26T08:47:13.988Z,38.23
2022-07-26T08:49:42.162Z,37.72
2022-07-26T08:52:10.272Z,37.09
2022-07-26T08:54:38.276Z,36.98
2022-07-26T08:57:11.056Z,36.51
2022-07-26T08:59:39.150Z,36.43
2022-07-26T09:02:08.107Z,36.46
2022-07-26T09:04:43.611Z,36.40
2022-07-26T09:07:13.437Z,36.13
2022-07-26T09:09:57.266Z,36.19
2022-07-26T09:12:27.079Z,36.24
2022-07-26T09:14:55.107Z,36.25
2022-07-26T09:17:24.036Z,36.35
2022-07-26T09:20:05.618Z,36.56
2022-07-26T09:22:33.661Z,36.81
2022-07-26T09:25:01.715Z,36.84
2022-07-26T09:27:37.037Z,36.83
2022-07-26T09:30:07.452Z,37.11
2022-07-26T09:32:36.904Z,37.32
2022-07-26T09:35:36.966Z,37.46
2022-07-26T09:37:59.653Z,37.44
2022-07-26T09:40:33.189Z,37.54
2022-07-26T09:43:03.385Z,37.71
2022-07-26T09:45:32.829Z,37.74
2022-07-26T09:48:00.868Z,37.66
2022-07-26T09:50:30.636Z,37.87
2022-07-26T09:53:07.937Z,38.13
2022-07-26T09:55:44.254Z,38.06
2022-07-26T09:58:17.550Z,37.71
2022-07-26T10:00:45.772Z,37.48
2022-07-26T10:03:15.730Z,36.98
2022-07-26T10:05:43.780Z,36.64
2022-07-26T10:08:11.791Z,36.62
2022-07-26T10:10:41.587Z,36.79
2022-07-26T10:13:09.610Z,37.01
2022-07-26T10:15:41.399Z,37.22
2022-07-26T10:18:16.600Z,37.40
2022-07-26T10:20:50.065Z,37.77
2022-07-26T10:23:41.311Z,37.97
2022-07-26T10:26:14.192Z,38.29
2022-07-26T10:28:42.529Z,38.74
2022-07-26T10:31:31.386Z,39.16
2022-07-26T10:34:00.707Z,39.64
2022-07-26T10:36:38.565Z,40.42
2022-07-26T10:39:14.374Z,41.21
2022-07-26T10:41:44.254Z,41.36
2022-07-26T10:44:17.373Z,40.85
2022-07-26T10:47:04.129Z,39.69
2022-07-26T10:49:34.185Z,39.05
2022-07-26T10:52:13.290Z,38.26
2022-07-26T10:55:11.218Z,37.92
2022-07-26T10:57:39.890Z,38.57
2022-07-26T11:00:10.877Z,39.96
2022-07-26T11:02:40.323Z,40.79
2022-07-26T11:05:14.166Z,40.37
2022-07-26T11:07:53.493Z,39.25
2022-07-26T11:10:25.725Z,38.49
2022-07-26T11:13:01.265Z,37.87
2022-07-26T11:15:29.321Z,37.42
2022-07-26T11:18:12.053Z,36.95
2022-07-26T11:20:40.120Z,36.79
2022-07-26T11:23:21.395Z,37.80
2022-07-26T11:26:13.152Z,39.10
2022-07-26T11:28:51.797Z,39.98
2022-07-26T11:31:23.579Z,40.79
2022-07-26T11:34:18.503Z,41.72
2022-07-26T11:36:46.778Z,41.87
2022-07-26T11:39:15.313Z,41.51
2022-07-26T11:41:43.861Z,40.39
2022-07-26T11:44:16.702Z,39.63
2022-07-26T11:46:47.732Z,39.16
2022-07-26T11:49:18.417Z,39.95
2022-07-26T11:51:53.635Z,40.95
2022-07-26T11:54:21.863Z,42.49
2022-07-26T11:56:54.255Z,43.46
2022-07-26T11:59:23.328Z,44.25
2022-07-26T12:01:51.357Z,45.46
2022-07-26T12:04:21.935Z,45.11
2022-07-26T12:06:50.021Z,43.76
2022-07-26T12:09:34.258Z,42.94
2022-07-26T12:12:02.309Z,44.00
2022-07-26T12:14:31.097Z,44.71
2022-07-26T12:16:59.367Z,45.27
2022-07-26T12:19:29.957Z,44.60
2022-07-26T12:22:00.091Z,44.46
2022-07-26T12:24:41.963Z,44.93
2022-07-26T12:27:10.852Z,45.64
2022-07-26T12:29:39.031Z,45.38
2022-07-26T12:32:12.472Z,44.92
2022-07-26T12:34:43.171Z,44.90
2022-07-26T12:37:18.419Z,44.39
2022-07-26T12:40:01.605Z,44.40
2022-07-26T12:42:33.242Z,44.09
2022-07-26T12:45:02.904Z,44.41
2022-07-26T12:47:30.935Z,45.54
2022-07-26T12:50:01.360Z,46.27
2022-07-26T12:52:29.371Z,47.37
2022-07-26T12:54:57.359Z,46.86
2022-07-26T12:57:25.377Z,47.57
2022-07-26T12:59:53.429Z,47.84
2022-07-26T13:02:21.533Z,48.92
2022-07-26T13:04:49.760Z,49.58
2022-07-26T13:07:19.524Z,48.63
2022-07-26T13:09:47.973Z,47.14
2022-07-26T13:12:16.534Z,47.43
2022-07-26T13:14:44.537Z,46.93
2022-07-26T13:17:12.822Z,47.39
2022-07-26T13:19:40.889Z,46.98
2022-07-26T13:22:09.679Z,47.30
2022-07-26T13:24:39.384Z,47.35
2022-07-26T13:27:09.467Z,47.73
2022-07-26T13:29:37.580Z,47.14
2022-07-26T13:32:06.086Z,47.59
2022-07-26T13:34:35.188Z,46.91
2022-07-26T13:37:08.439Z,48.02
2022-07-26T13:39:38.076Z,47.96
2022-07-26T13:42:06.696Z,47.58
2022-07-26T13:44:34.706Z,47.30
2022-07-26T13:47:02.814Z,46.79
2022-07-26T13:49:31.077Z,45.73
2022-07-26T13:51:59.175Z,45.09
2022-07-26T13:54:28.234Z,43.46
2022-07-26T13:56:57.743Z,43.46
2022-07-26T13:59:25.932Z,42.59
2022-07-26T14:01:54.082Z,41.91
2022-07-26T14:04:22.293Z,41.20
2022-07-26T14:06:50.305Z,40.77
2022-07-26T14:09:18.430Z,40.09
2022-07-26T14:11:46.493Z,39.38
2022-07-26T14:14:15.982Z,38.80
2022-07-26T14:16:48.068Z,38.46
2022-07-26T14:19:17.798Z,38.50
2022-07-26T14:21:58.855Z,38.32
2022-07-26T14:24:27.817Z,37.84
2022-07-26T14:26:59.297Z,37.42
2022-07-26T14:29:29.333Z,37.27
2022-07-26T14:31:57.618Z,37.12
2022-07-26T14:34:25.818Z,36.74
2022-07-26T14:36:53.868Z,36.42
2022-07-26T14:39:21.897Z,36.20
2022-07-26T14:41:49.962Z,36.11
2022-07-26T14:44:17.964Z,35.96
2022-07-26T14:46:47.602Z,35.88
2022-07-26T14:49:15.755Z,35.88
2022-07-26T14:51:43.833Z,35.83
2022-07-26T14:54:13.982Z,35.75
2022-07-26T14:56:42.332Z,35.62
2022-07-26T14:59:10.355Z,35.49
2022-07-26T15:01:38.467Z,35.42
2022-07-26T15:04:08.342Z,35.49
2022-07-26T15:06:36.655Z,35.42
2022-07-26T15:09:05.344Z,35.73
2022-07-26T15:11:33.390Z,35.90
2022-07-26T15:14:05.740Z,35.86
2022-07-26T15:16:34.294Z,35.85
2022-07-26T15:19:02.528Z,35.78
2022-07-26T15:21:31.931Z,35.56
2022-07-26T15:23:59.922Z,35.56
2022-07-26T15:26:27.964Z,35.50
2022-07-26T15:28:56.001Z,35.40
2022-07-26T15:31:24.905Z,35.22
2022-07-26T15:34:05.738Z,35.15
2022-07-26T15:36:35.125Z,35.09
2022-07-26T15:39:15.957Z,35.05
2022-07-26T15:41:45.082Z,35.00
2022-07-26T15:44:13.533Z,34.95
2022-07-26T15:46:45.749Z,34.93
2022-07-26T15:49:16.384Z,34.88
2022-07-26T15:51:45.815Z,34.86
2022-07-26T15:54:15.144Z,34.84
2022-07-26T15:56:44.044Z,34.82
2022-07-26T15:59:12.080Z,34.75
2022-07-26T16:01:40.189Z,34.71
2022-07-26T16:04:08.539Z,34.64
2022-07-26T16:06:36.830Z,34.56
2022-07-26T16:09:16.606Z,34.53
2022-07-26T16:11:45.726Z,34.44
2022-07-26T16:14:13.750Z,34.32
2022-07-26T16:16:41.920Z,34.20
2022-07-26T16:19:10.620Z,34.08
2022-07-26T16:21:38.954Z,33.97
2022-07-26T16:24:09.077Z,33.90
2022-07-26T16:26:37.130Z,33.85
2022-07-26T16:29:05.964Z,33.76
2022-07-26T16:31:34.184Z,33.74
2022-07-26T16:34:02.266Z,33.69
2022-07-26T16:36:30.324Z,33.63
2022-07-26T16:38:58.345Z,33.57
2022-07-26T16:41:29.067Z,33.50
2022-07-26T16:43:57.116Z,33.49
2022-07-26T16:46:25.548Z,33.40
2022-07-26T16:48:53.604Z,33.30
2022-07-26T16:51:21.699Z,33.20
2022-07-26T16:53:51.670Z,33.09
2022-07-26T16:56:19.710Z,33.01
2022-07-26T16:58:49.175Z,32.90
2022-07-26T17:01:17.341Z,32.82
2022-07-26T17:03:45.456Z,32.72
2022-07-26T17:06:13.595Z,32.60
2022-07-26T17:08:42.149Z,32.52
2022-07-26T17:11:10.181Z,32.38
2022-07-26T17:13:38.438Z,32.29
2022-07-26T17:16:08.114Z,32.15
2022-07-26T17:18:36.175Z,32.08
2022-07-26T17:21:04.449Z,31.99
2022-07-26T17:23:32.482Z,31.88
2022-07-26T17:26:00.536Z,31.75
2022-07-26T17:28:28.625Z,31.67
2022-07-26T17:30:56.743Z,31.56
2022-07-26T17:33:26.234Z,31.45
2022-07-26T17:35:54.296Z,31.33
2022-07-26T17:38:24.526Z,31.23
2022-07-26T17:40:54.902Z,31.09
2022-07-26T17:43:22.991Z,30.98
2022-07-26T17:45:52.003Z,30.84
2022-07-26T17:48:20.066Z,30.70
2022-07-26T17:50:49.677Z,30.56
2022-07-26T17:53:21.679Z,30.44
2022-07-26T17:56:02.046Z,30.32
2022-07-26T17:58:30.186Z,30.19
2022-07-26T18:00:58.357Z,30.07
2022-07-26T18:03:26.387Z,29.97
2022-07-26T18:05:56.156Z,29.86
2022-07-26T18:08:27.221Z,29.76
2022-07-26T18:10:55.354Z,29.67
2022-07-26T18:13:23.437Z,29.57
2022-07-26T18:15:51.617Z,29.50
2022-07-26T18:18:19.687Z,29.46
2022-07-26T18:20:48.127Z,29.38
2022-07-26T18:23:17.526Z,29.29
2022-07-26T18:25:45.582Z,29.17
2022-07-26T18:28:13.614Z,29.04
2022-07-26T18:30:41.637Z,28.91
2022-07-26T18:33:11.982Z,28.78
2022-07-26T18:35:40.039Z,28.65
2022-07-26T18:38:08.119Z,28.42
2022-07-26T18:40:37.753Z,28.38
2022-07-26T18:43:05.874Z,28.24
2022-07-26T18:45:34.115Z,28.12
2022-07-26T18:48:02.272Z,28.01
2022-07-26T18:50:30.994Z,27.94
2022-07-26T18:53:00.542Z,27.87
2022-07-26T18:55:28.782Z,27.77
2022-07-26T18:58:00.875Z,27.68
2022-07-26T19:00:31.451Z,27.60
2022-07-26T19:02:59.544Z,27.56
2022-07-26T19:05:34.528Z,27.51
2022-07-26T19:08:03.613Z,27.44
2022-07-26T19:10:31.676Z,27.41
2022-07-26T19:13:01.095Z,27.34
2022-07-26T19:15:29.810Z,27.27
2022-07-26T19:17:57.928Z,27.21
2022-07-26T19:20:26.039Z,27.16
2022-07-26T19:22:54.130Z,27.09
2022-07-26T19:25:22.339Z,27.04
2022-07-26T19:27:50.430Z,27.02
2022-07-26T19:30:19.874Z,26.95
2022-07-26T19:32:48.053Z,26.92
2022-07-26T19:35:16.053Z,26.92
2022-07-26T19:37:45.853Z,26.92
2022-07-26T19:40:14.528Z,26.90
2022-07-26T19:42:42.993Z,26.89
2022-07-26T19:45:11.431Z,26.88
2022-07-26T19:47:40.880Z,26.90
2022-07-26T19:50:09.969Z,26.97
2022-07-26T19:52:38.036Z,27.01
2022-07-26T19:55:06.907Z,27.06
2022-07-26T19:57:35.082Z,27.07
2022-07-26T20:00:03.756Z,27.09
2022-07-26T20:02:31.968Z,27.14
2022-07-26T20:05:01.901Z,27.20
2022-07-26T20:07:29.964Z,27.26
2022-07-26T20:09:58.008Z,27.24
2022-07-26T20:12:26.048Z,27.34
2022-07-26T20:14:54.079Z,27.39
2022-07-26T20:17:23.350Z,27.38
2022-07-26T20:19:51.657Z,27.41
2022-07-26T20:22:21.032Z,27.45
2022-07-26T20:24:54.845Z,27.37
2022-07-26T20:27:22.951Z,27.35
2022-07-26T20:29:51.119Z,27.29
2022-07-26T20:32:19.399Z,27.20
2022-07-26T20:34:47.403Z,27.09
2022-07-26T20:37:15.481Z,27.00
2022-07-26T20:39:44.902Z,26.86
2022-07-26T20:42:18.940Z,26.85
2022-07-26T20:44:50.075Z,26.88
2022-07-26T20:47:18.281Z,26.89
2022-07-26T20:49:46.377Z,26.86
2022-07-26T20:52:14.433Z,26.81
2022-07-26T20:54:42.466Z,26.77
2022-07-26T20:57:12.174Z,26.73
2022-07-26T20:59:40.233Z,26.63
2022-07-26T21:02:08.572Z,26.60
2022-07-26T21:04:36.729Z,26.56
2022-07-26T21:07:04.806Z,26.50
2022-07-26T21:09:32.922Z,26.44
2022-07-26T21:12:00.934Z,26.34
2022-07-26T21:14:30.351Z,26.26
2022-07-26T21:16:58.506Z,26.19
2022-07-26T21:19:26.633Z,26.09
2022-07-26T21:21:54.808Z,26.09
2022-07-26T21:24:22.897Z,26.09
2022-07-26T21:26:50.923Z,26.06
2022-07-26T21:29:18.998Z,26.12
2022-07-26T21:31:48.497Z,26.11
2022-07-26T21:34:16.651Z,26.10
2022-07-26T21:36:44.752Z,26.03
2022-07-26T21:39:13.195Z,26.01
2022-07-26T21:41:41.477Z,26.01
2022-07-26T21:44:09.600Z,25.99
2022-07-26T21:46:37.725Z,26.00
2022-07-26T21:49:07.256Z,25.94
2022-07-26T21:51:35.432Z,25.94
2022-07-26T21:54:03.536Z,25.98
2022-07-26T21:56:31.573Z,25.97
2022-07-26T21:59:00.358Z,25.98
2022-07-26T22:01:28.458Z,26.00
2022-07-26T22:03:56.585Z,25.88
2022-07-26T22:06:26.033Z,25.87
2022-07-26T22:08:54.082Z,25.75
2022-07-26T22:11:22.156Z,25.73
2022-07-26T22:13:50.216Z,25.66
2022-07-26T22:16:18.471Z,25.43
2022-07-26T22:18:46.578Z,25.48
2022-07-26T22:21:14.752Z,25.37
2022-07-26T22:23:44.168Z,25.24
2022-07-26T22:26:12.212Z,25.11
2022-07-26T22:28:40.260Z,24.95
2022-07-26T22:31:08.451Z,24.88
2022-07-26T22:33:36.574Z,24.85
2022-07-26T22:36:05.041Z,24.76
2022-07-26T22:38:33.105Z,24.82
2022-07-26T22:41:02.504Z,24.74
2022-07-26T22:43:30.579Z,24.65
2022-07-26T22:45:58.701Z,24.63
2022-07-26T22:48:26.827Z,24.66
2022-07-26T22:50:54.868Z,24.64
2022-07-26T22:53:22.937Z,24.70
2022-07-26T22:55:51.040Z,24.71
2022-07-26T22:58:20.933Z,24.73
2022-07-26T23:00:49.067Z,24.72
2022-07-26T23:03:20.036Z,24.74
2022-07-26T23:05:49.958Z,24.78
2022-07-26T23:11:06.650Z,24.72
2022-07-26T23:13:36.119Z,24.61
2022-07-26T23:16:04.427Z,24.68
2022-07-26T23:18:32.672Z,24.71
2022-07-26T23:21:00.732Z,24.66
2022-07-26T23:23:29.561Z,24.62
2022-07-26T23:25:58.415Z,24.61
2022-07-26T23:28:37.311Z,24.60
2022-07-26T23:31:09.215Z,24.63
2022-07-26T23:33:52.516Z,24.49
2022-07-26T23:36:23.879Z,24.38
2022-07-26T23:38:52.006Z,24.31
2022-07-26T23:41:20.142Z,24.24
2022-07-26T23:43:48.267Z,24.16
2022-07-26T23:46:17.881Z,24.17
2022-07-26T23:48:46.000Z,24.14
2022-07-26T23:51:14.066Z,24.01
2022-07-26T23:53:42.134Z,24.00
2022-07-26T23:56:10.178Z,23.98
2022-07-26T23:58:38.650Z,23.97
